createdAt,value
2022-10-04T00:08:22.050Z,6.10
2022-10-04T00:16:00.196Z,7.30
2022-10-04T00:19:37.811Z,4.60
2022-10-04T00:22:13.366Z,8.40
2022-10-04T00:25:31.474Z,9.10
2022-10-04T00:28:26.484Z,4.30
2022-10-04T00:31:29.337Z,6.60
2022-10-04T00:34:10.249Z,6.10
2022-10-04T00:37:37.855Z,9.40
2022-10-04T00:40:49.878Z,5.60
2022-10-04T00:44:15.527Z,5.70
2022-10-04T00:47:48.673Z,7.90
2022-10-04T00:50:56.870Z,5.10
2022-10-04T00:54:41.684Z,4.60
2022-10-04T01:05:00.788Z,10.40
2022-10-04T01:15:42.856Z,8.50
2022-10-04T01:19:13.930Z,6.10
2022-10-04T01:22:11.656Z,5.60
2022-10-04T01:25:38.268Z,6.30
2022-10-04T01:31:52.859Z,8.30
2022-10-04T01:35:17.526Z,8.00
2022-10-04T01:38:18.741Z,5.80
2022-10-04T01:42:03.820Z,7.80
2022-10-04T01:45:17.541Z,6.00
2022-10-04T01:52:25.268Z,7.80
2022-10-04T01:59:24.877Z,6.90
2022-10-04T02:02:33.057Z,7.50
2022-10-04T02:05:47.578Z,8.90
2022-10-04T02:08:28.843Z,7.10
2022-10-04T02:11:34.576Z,7.10
2022-10-04T02:14:36.406Z,4.60
2022-10-04T02:17:40.545Z,7.40
2022-10-04T02:20:49.571Z,8.30
2022-10-04T02:24:34.507Z,8.00
2022-10-04T02:28:20.343Z,7.60
2022-10-04T02:31:42.068Z,12.50
2022-10-04T02:34:52.490Z,6.20
2022-10-04T02:37:53.905Z,7.80
2022-10-04T02:41:02.498Z,5.60
2022-10-04T02:44:34.586Z,7.40
2022-10-04T02:48:01.678Z,5.90
2022-10-04T02:58:03.435Z,11.20
2022-10-04T03:01:09.462Z,5.60
2022-10-04T03:04:10.890Z,5.60
2022-10-04T03:07:58.916Z,7.00
2022-10-04T03:11:46.972Z,9.70
2022-10-04T03:15:38.176Z,5.60
2022-10-04T03:19:26.192Z,5.40
2022-10-04T03:23:14.361Z,6.10
2022-10-04T03:26:54.730Z,5.20
2022-10-04T03:30:42.777Z,5.70
2022-10-04T03:33:45.410Z,7.90
2022-10-04T03:37:12.605Z,6.10
2022-10-04T03:40:15.512Z,8.40
2022-10-04T03:43:20.815Z,9.10
2022-10-04T03:46:59.458Z,9.50
2022-10-04T03:50:10.634Z,12.30
2022-10-04T03:53:20.911Z,6.20
2022-10-04T03:57:08.557Z,9.00
2022-10-04T04:00:56.743Z,7.80
2022-10-04T04:08:54.396Z,8.90
2022-10-04T04:12:31.633Z,7.30
2022-10-04T04:20:18.234Z,7.90
2022-10-04T04:23:31.075Z,9.90
2022-10-04T04:31:00.724Z,8.60
2022-10-04T04:34:54.977Z,6.80
2022-10-04T04:41:30.514Z,6.80
2022-10-04T04:45:17.457Z,11.50
2022-10-04T04:52:16.507Z,6.70
2022-10-04T05:00:03.417Z,8.90
2022-10-04T05:03:34.997Z,9.90
2022-10-04T05:06:22.967Z,7.80
2022-10-04T05:08:51.957Z,6.40
2022-10-04T05:11:26.377Z,8.70
2022-10-04T05:14:11.319Z,7.20
2022-10-04T05:16:54.131Z,7.30
2022-10-04T05:19:34.717Z,12.00
2022-10-04T05:22:13.557Z,9.80
2022-10-04T05:24:46.926Z,8.10
2022-10-04T05:27:43.110Z,11.40
2022-10-04T05:30:33.878Z,5.50
2022-10-04T05:33:08.436Z,8.30
2022-10-04T05:36:14.121Z,10.40
2022-10-04T05:39:42.631Z,5.40
2022-10-04T05:42:27.411Z,9.60
2022-10-04T05:44:58.528Z,10.30
2022-10-04T05:47:32.398Z,12.40
2022-10-04T05:50:02.471Z,8.10
2022-10-04T05:52:38.933Z,6.00
2022-10-04T05:55:16.642Z,10.40
2022-10-04T05:58:06.942Z,6.80
2022-10-04T06:01:35.396Z,5.00
2022-10-04T06:04:47.930Z,6.00
2022-10-04T06:07:49.302Z,9.50
2022-10-04T06:10:50.331Z,7.30
2022-10-04T06:13:45.530Z,6.90
2022-10-04T06:16:51.789Z,14.40
2022-10-04T06:19:41.893Z,5.30
2022-10-04T06:22:23.001Z,5.40
2022-10-04T06:25:06.413Z,7.00
2022-10-04T06:28:17.506Z,6.70
2022-10-04T06:31:37.572Z,9.60
2022-10-04T06:34:52.451Z,6.40
2022-10-04T06:38:09.133Z,5.40
2022-10-04T06:41:06.512Z,6.90
2022-10-04T06:44:04.993Z,6.20
2022-10-04T06:47:00.612Z,11.10
2022-10-04T06:50:19.582Z,6.10
2022-10-04T06:53:21.851Z,9.90
2022-10-04T06:56:06.231Z,7.50
2022-10-04T06:58:49.941Z,8.60
2022-10-04T07:01:39.999Z,8.80
2022-10-04T07:05:08.870Z,7.60
2022-10-04T07:07:45.501Z,8.40
2022-10-04T07:10:26.093Z,8.40
2022-10-04T07:13:22.812Z,5.70
2022-10-04T07:16:05.116Z,8.70
2022-10-04T07:19:20.519Z,12.20
2022-10-04T07:22:09.252Z,12.00
2022-10-04T07:25:09.093Z,7.30
2022-10-04T07:28:29.552Z,8.60
2022-10-04T07:31:05.754Z,8.90
2022-10-04T07:33:50.231Z,7.80
2022-10-04T07:37:14.913Z,10.90
2022-10-04T07:40:19.132Z,8.20
2022-10-04T07:42:55.290Z,7.60
2022-10-04T07:45:34.493Z,8.10
2022-10-04T07:48:20.153Z,6.00
2022-10-04T07:51:33.012Z,7.50
2022-10-04T07:54:47.888Z,6.50
2022-10-04T07:57:59.691Z,8.60
2022-10-04T08:00:59.081Z,9.50
2022-10-04T08:04:18.666Z,6.20
2022-10-04T08:07:00.568Z,7.20
2022-10-04T08:09:40.923Z,5.30
2022-10-04T08:12:21.279Z,7.00
2022-10-04T08:15:28.373Z,6.70
2022-10-04T08:18:11.697Z,7.10
2022-10-04T08:21:05.917Z,6.30
2022-10-04T08:24:14.938Z,5.80
2022-10-04T08:27:35.629Z,8.30
2022-10-04T08:30:15.327Z,7.40
2022-10-04T08:33:13.441Z,6.00
2022-10-04T08:36:31.913Z,10.50
2022-10-04T08:39:01.509Z,5.80
2022-10-04T08:42:14.131Z,5.60
2022-10-04T08:45:06.657Z,10.00
2022-10-04T08:48:12.624Z,5.20
2022-10-04T08:51:16.753Z,7.50
2022-10-04T08:54:41.253Z,7.10
2022-10-04T08:57:18.833Z,7.70
2022-10-04T09:00:32.683Z,6.40
2022-10-04T09:04:15.623Z,6.70
2022-10-04T09:07:19.522Z,5.60
2022-10-04T09:10:20.914Z,5.00
2022-10-04T09:13:19.517Z,5.80
2022-10-04T09:16:10.632Z,8.20
2022-10-04T09:19:07.326Z,4.10
2022-10-04T09:21:47.921Z,3.40
2022-10-04T09:24:35.015Z,4.70
2022-10-04T09:28:03.424Z,5.90
2022-10-04T09:31:06.779Z,5.40
2022-10-04T09:34:22.584Z,7.30
2022-10-04T09:37:10.727Z,5.70
2022-10-04T09:40:29.379Z,3.70
2022-10-04T09:43:28.887Z,7.50
2022-10-04T09:46:29.046Z,4.30
2022-10-04T09:49:19.417Z,6.90
2022-10-04T09:52:26.094Z,8.30
2022-10-04T09:55:34.516Z,4.10
2022-10-04T09:58:58.946Z,5.50
2022-10-04T10:01:33.963Z,7.20
2022-10-04T10:04:32.519Z,5.80
2022-10-04T10:07:35.105Z,5.90
2022-10-04T10:10:49.576Z,6.50
2022-10-04T10:13:43.414Z,5.20
2022-10-04T10:16:34.968Z,6.90
2022-10-04T10:19:27.462Z,6.90
2022-10-04T10:22:32.371Z,4.60
2022-10-04T10:25:48.235Z,5.90
2022-10-04T10:28:43.132Z,4.80
2022-10-04T10:31:51.914Z,6.20
2022-10-04T10:34:57.532Z,5.20
2022-10-04T10:38:04.446Z,5.50
2022-10-04T10:40:45.832Z,6.70
2022-10-04T10:43:37.418Z,5.30
2022-10-04T10:46:53.877Z,6.80
2022-10-04T10:49:50.050Z,6.00
2022-10-04T10:52:37.462Z,5.10
2022-10-04T10:56:01.557Z,5.10
2022-10-04T10:59:02.185Z,6.70
2022-10-04T11:02:47.681Z,4.20
2022-10-04T11:05:39.907Z,4.00
2022-10-04T11:08:29.906Z,6.40
2022-10-04T11:11:39.854Z,6.10
2022-10-04T11:14:56.053Z,5.20
2022-10-04T11:17:34.700Z,5.80
2022-10-04T11:20:34.013Z,4.90
2022-10-04T11:23:25.613Z,5.30
2022-10-04T11:26:12.940Z,5.30
2022-10-04T11:29:03.932Z,5.90
2022-10-04T11:32:38.575Z,7.30
2022-10-04T11:35:28.780Z,5.50
2022-10-04T11:38:09.340Z,4.80
2022-10-04T11:41:22.465Z,4.90
2022-10-04T11:44:31.494Z,6.20
2022-10-04T11:47:36.524Z,5.00
2022-10-04T11:50:43.143Z,3.20
2022-10-04T11:54:28.918Z,5.20
2022-10-04T11:57:44.649Z,5.30
2022-10-04T12:00:21.580Z,5.10
2022-10-04T12:03:28.739Z,4.10
2022-10-04T12:06:36.144Z,2.90
2022-10-04T12:09:44.675Z,5.70
2022-10-04T12:12:39.281Z,7.30
2022-10-04T12:15:14.415Z,4.30
2022-10-04T12:18:07.057Z,5.20
2022-10-04T12:21:13.143Z,4.80
2022-10-04T12:24:27.479Z,5.30
2022-10-04T12:27:10.625Z,4.00
2022-10-04T12:30:04.575Z,4.80
2022-10-04T12:32:58.436Z,5.00
2022-10-04T12:35:45.469Z,4.90
2022-10-04T12:38:56.033Z,5.50
2022-10-04T12:42:02.664Z,4.70
2022-10-04T12:44:46.036Z,6.80
2022-10-04T12:47:56.317Z,3.90
2022-10-04T12:51:06.775Z,4.30
2022-10-04T12:54:16.535Z,5.50
2022-10-04T12:57:14.491Z,5.40
2022-10-04T12:59:54.333Z,4.00
2022-10-04T13:03:13.313Z,6.00
2022-10-04T13:05:48.782Z,4.20
2022-10-04T13:08:38.196Z,4.00
2022-10-04T13:11:30.166Z,4.80
2022-10-04T13:14:40.216Z,4.10
2022-10-04T13:18:03.291Z,6.20
2022-10-04T13:21:31.268Z,5.20
2022-10-04T13:24:06.005Z,7.50
2022-10-04T13:26:54.864Z,5.40
2022-10-04T13:30:02.739Z,5.80
2022-10-04T13:32:52.214Z,5.00
2022-10-04T13:35:27.255Z,3.50
2022-10-04T13:38:32.695Z,5.40
2022-10-04T13:41:17.053Z,6.60
2022-10-04T13:44:08.618Z,4.30
2022-10-04T13:47:46.335Z,4.80
2022-10-04T13:50:48.961Z,6.90
2022-10-04T13:53:53.158Z,4.40
2022-10-04T13:57:10.525Z,6.90
2022-10-04T14:00:03.200Z,9.00
2022-10-04T14:02:34.915Z,5.30
2022-10-04T14:05:46.409Z,7.00
2022-10-04T14:09:14.207Z,5.20
2022-10-04T14:12:26.225Z,4.50
2022-10-04T14:15:56.310Z,4.00
2022-10-04T14:19:02.877Z,7.20
2022-10-04T14:22:26.353Z,6.40
2022-10-04T14:25:55.455Z,5.30
2022-10-04T14:28:39.352Z,6.60
2022-10-04T14:31:40.897Z,4.90
2022-10-04T14:34:57.554Z,5.80
2022-10-04T14:38:06.112Z,4.80
2022-10-04T14:41:06.241Z,5.50
2022-10-04T14:44:10.704Z,4.90
2022-10-04T14:46:59.092Z,5.90
2022-10-04T14:49:44.372Z,6.60
2022-10-04T14:52:35.995Z,4.40
2022-10-04T14:55:52.400Z,4.90
2022-10-04T14:58:52.835Z,5.20
2022-10-04T15:01:24.891Z,3.70
2022-10-04T15:04:43.481Z,4.90
2022-10-04T15:07:44.196Z,6.70
2022-10-04T15:10:24.655Z,6.70
2022-10-04T15:13:11.442Z,8.10
2022-10-04T15:16:10.060Z,8.80
2022-10-04T15:19:05.095Z,11.70
2022-10-04T15:22:04.058Z,7.70
2022-10-04T15:24:47.134Z,6.80
2022-10-04T15:27:34.186Z,7.30
2022-10-04T15:30:45.945Z,10.00
2022-10-04T15:33:52.779Z,6.70
2022-10-04T15:37:05.894Z,8.50
2022-10-04T15:40:25.573Z,5.60
2022-10-04T15:43:14.027Z,6.00
2022-10-04T15:46:39.139Z,7.10
2022-10-04T15:49:23.074Z,5.80
2022-10-04T15:52:29.239Z,5.80
2022-10-04T15:55:09.699Z,5.60
2022-10-04T15:58:25.300Z,6.80
2022-10-04T16:01:22.564Z,6.10
2022-10-04T16:04:25.754Z,4.10
2022-10-04T16:07:09.551Z,5.40
2022-10-04T16:10:21.126Z,7.40
2022-10-04T16:13:16.281Z,6.00
2022-10-04T16:15:49.973Z,9.70
2022-10-04T16:18:36.742Z,6.60
2022-10-04T16:21:31.811Z,7.60
2022-10-04T16:24:50.982Z,8.20
2022-10-04T16:27:50.906Z,4.00
2022-10-04T16:30:38.426Z,6.70
2022-10-04T16:33:42.955Z,5.30
2022-10-04T16:36:22.913Z,7.40
2022-10-04T16:39:19.431Z,6.70
2022-10-04T16:42:04.672Z,6.60
2022-10-04T16:45:17.530Z,7.60
2022-10-04T16:48:01.913Z,10.60
2022-10-04T16:51:19.222Z,7.70
2022-10-04T16:54:31.432Z,8.20
2022-10-04T16:57:01.234Z,5.50
2022-10-04T16:59:39.152Z,7.40
2022-10-04T17:02:54.007Z,12.20
2022-10-04T17:05:42.369Z,14.30
2022-10-04T17:08:22.104Z,13.80
2022-10-04T17:10:50.896Z,14.10
2022-10-04T17:13:36.300Z,11.70
2022-10-04T17:16:15.231Z,14.50
2022-10-04T17:19:29.551Z,14.10
2022-10-04T17:22:27.930Z,12.20
2022-10-04T17:25:03.049Z,18.30
2022-10-04T17:27:50.499Z,19.60
2022-10-04T17:30:25.710Z,20.50
2022-10-04T17:33:16.342Z,21.10
2022-10-04T17:36:34.794Z,21.80
2022-10-04T17:39:54.886Z,20.50
2022-10-04T17:42:29.621Z,18.60
2022-10-04T17:45:41.011Z,17.90
2022-10-04T17:48:41.127Z,16.20
2022-10-04T17:51:39.934Z,15.80
2022-10-04T17:54:39.284Z,22.20
2022-10-04T17:57:09.543Z,16.60
2022-10-04T17:59:53.411Z,15.90
2022-10-04T18:03:13.388Z,18.00
2022-10-04T18:05:42.012Z,17.00
2022-10-04T18:08:45.172Z,16.50
2022-10-04T18:11:53.371Z,20.90
2022-10-04T18:14:31.470Z,19.20
2022-10-04T18:17:13.881Z,15.50
2022-10-04T18:19:50.882Z,19.00
2022-10-04T18:22:26.911Z,18.40
2022-10-04T18:25:23.849Z,17.90
2022-10-04T18:28:07.880Z,18.40
2022-10-04T18:31:00.699Z,18.80
2022-10-04T18:33:51.542Z,21.90
2022-10-04T18:36:31.751Z,19.40
2022-10-04T18:39:12.600Z,23.30
2022-10-04T18:41:57.271Z,20.50
2022-10-04T18:44:59.492Z,25.40
2022-10-04T18:47:39.993Z,30.30
2022-10-04T18:50:25.344Z,22.90
2022-10-04T18:53:20.092Z,23.70
2022-10-04T18:56:06.584Z,19.30
2022-10-04T18:59:23.631Z,22.40
2022-10-04T19:02:38.071Z,22.30
2022-10-04T19:05:53.693Z,19.40
2022-10-04T19:08:50.092Z,23.00
2022-10-04T19:11:39.573Z,17.90
2022-10-04T19:14:37.653Z,22.80
2022-10-04T19:17:43.812Z,21.20
2022-10-04T19:20:39.411Z,20.80
2022-10-04T19:23:44.252Z,17.80
2022-10-04T19:26:32.436Z,17.30
2022-10-04T19:29:27.211Z,20.00
2022-10-04T19:32:20.616Z,19.50
2022-10-04T19:35:30.622Z,21.80
2022-10-04T19:38:21.931Z,20.10
2022-10-04T19:40:59.351Z,23.50
2022-10-04T19:43:56.172Z,18.90
2022-10-04T19:46:44.262Z,21.10
2022-10-04T19:49:41.132Z,19.70
2022-10-04T19:52:34.222Z,22.60
2022-10-04T19:55:44.397Z,21.10
2022-10-04T19:58:24.951Z,22.30
2022-10-04T20:00:54.406Z,21.90
2022-10-04T20:03:23.352Z,24.70
2022-10-04T20:05:55.073Z,24.20
2022-10-04T20:09:19.282Z,24.10
2022-10-04T20:11:52.163Z,25.70
2022-10-04T20:14:23.721Z,23.80
2022-10-04T20:16:55.250Z,25.40
2022-10-04T20:19:30.333Z,22.60
2022-10-04T20:22:08.621Z,24.90
2022-10-04T20:24:37.311Z,28.20
2022-10-04T20:27:27.412Z,28.30
2022-10-04T20:29:57.524Z,25.30
2022-10-04T20:32:34.614Z,30.80
2022-10-04T20:35:10.396Z,25.70
2022-10-04T20:37:44.899Z,30.60
2022-10-04T20:40:22.591Z,22.60
2022-10-04T20:43:16.251Z,26.40
2022-10-04T20:45:59.097Z,25.40
2022-10-04T20:48:31.749Z,22.20
2022-10-04T20:51:11.054Z,21.70
2022-10-04T20:53:53.281Z,22.60
2022-10-04T20:56:33.581Z,27.60
2022-10-04T20:59:04.800Z,20.50
2022-10-04T21:01:37.600Z,24.80
2022-10-04T21:04:30.903Z,22.40
2022-10-04T21:07:09.491Z,22.00
2022-10-04T21:09:40.272Z,21.00
2022-10-04T21:12:31.662Z,27.60
2022-10-04T21:15:21.242Z,26.00
2022-10-04T21:18:24.484Z,23.80
2022-10-04T21:20:52.969Z,23.60
2022-10-04T21:23:35.071Z,22.80
2022-10-04T21:26:24.613Z,26.50
2022-10-04T21:29:02.050Z,28.20
2022-10-04T21:31:30.630Z,27.70
2022-10-04T21:33:59.203Z,22.10
2022-10-04T21:36:27.810Z,20.90
2022-10-04T21:38:56.470Z,22.80
2022-10-04T21:41:24.972Z,26.50
2022-10-04T21:43:53.551Z,30.40
2022-10-04T21:46:22.213Z,25.30
2022-10-04T21:48:50.910Z,21.40
2022-10-04T21:51:19.510Z,23.00
2022-10-04T21:53:48.892Z,23.00
2022-10-04T21:56:17.271Z,22.00
2022-10-04T21:58:45.762Z,22.20
2022-10-04T22:01:45.701Z,26.30
2022-10-04T22:04:46.614Z,23.50
2022-10-04T22:07:47.962Z,28.20
2022-10-04T22:10:52.226Z,22.80
2022-10-04T22:13:54.931Z,23.90
2022-10-04T22:16:56.051Z,24.60
2022-10-04T22:19:57.631Z,24.80
2022-10-04T22:22:58.521Z,23.40
2022-10-04T22:25:59.931Z,24.90
2022-10-04T22:29:48.351Z,24.60
2022-10-04T22:33:43.289Z,23.80
2022-10-04T22:36:45.334Z,23.10
2022-10-04T22:39:46.852Z,20.40
2022-10-04T22:42:47.618Z,21.20
2022-10-04T22:45:51.828Z,22.30
2022-10-04T22:48:53.877Z,18.60
2022-10-04T22:51:55.806Z,21.10
2022-10-04T22:55:00.755Z,20.20
2022-10-04T22:58:52.689Z,22.80
2022-10-04T23:01:23.611Z,20.10
2022-10-04T23:04:25.049Z,20.80
2022-10-04T23:07:27.936Z,18.80
2022-10-04T23:10:29.470Z,23.10
2022-10-04T23:13:36.552Z,19.60
2022-10-04T23:16:47.110Z,18.30
2022-10-04T23:19:48.838Z,20.00
2022-10-04T23:22:50.059Z,18.40
2022-10-04T23:25:54.943Z,17.90
2022-10-04T23:28:59.525Z,18.50
2022-10-04T23:32:01.975Z,19.10
2022-10-04T23:35:08.504Z,18.30
2022-10-04T23:38:57.939Z,16.10
2022-10-04T23:45:03.579Z,20.60
2022-10-04T23:48:56.196Z,20.40
2022-10-04T23:52:45.705Z,23.10
2022-10-04T23:56:38.133Z,17.10
